sensor_id;sensor_type;location;lat;lon;timestamp;pressure;altitude;pressure_sealevel;temperature;humidity
50590;BME280;36547;50.514;30.840;2024-01-30T00:00:21;102603.06;;;-0.29;70.31
50590;BME280;36547;50.514;30.840;2024-01-30T00:01:23;102612.56;;;-0.31;70.24
50590;BME280;36547;50.514;30.840;2024-01-30T00:02:26;102608.23;;;-0.31;70.39
50590;BME280;36547;50.514;30.840;2024-01-30T00:03:28;102608.18;;;-0.32;70.53
50590;BME280;36547;50.514;30.840;2024-01-30T00:04:30;102610.73;;;-0.34;70.50
50590;BME280;36547;50.514;30.840;2024-01-30T00:05:32;102609.91;;;-0.33;70.43
50590;BME280;36547;50.514;30.840;2024-01-30T00:06:35;102607.29;;;-0.33;70.35
50590;BME280;36547;50.514;30.840;2024-01-30T00:07:37;102615.25;;;-0.28;70.19
50590;BME280;36547;50.514;30.840;2024-01-30T00:08:40;102612.69;;;-0.27;70.04
50590;BME280;36547;50.514;30.840;2024-01-30T00:09:42;102604.91;;;-0.25;69.93
50590;BME280;36547;50.514;30.840;2024-01-30T00:10:45;102610.92;;;-0.28;69.99
50590;BME280;36547;50.514;30.840;2024-01-30T00:11:47;102610.92;;;-0.28;69.89
50590;BME280;36547;50.514;30.840;2024-01-30T00:12:49;102607.40;;;-0.30;69.84
50590;BME280;36547;50.514;30.840;2024-01-30T00:13:53;102612.41;;;-0.36;69.98
50590;BME280;36547;50.514;30.840;2024-01-30T00:14:55;102607.08;;;-0.39;70.10
50590;BME280;36547;50.514;30.840;2024-01-30T00:15:57;102611.47;;;-0.38;70.27
50590;BME280;36547;50.514;30.840;2024-01-30T00:16:59;102605.30;;;-0.40;70.34
50590;BME280;36547;50.514;30.840;2024-01-30T00:18:02;102605.30;;;-0.40;70.48
50590;BME280;36547;50.514;30.840;2024-01-30T00:19:04;102607.97;;;-0.39;70.48
50590;BME280;36547;50.514;30.840;2024-01-30T00:20:07;102606.19;;;-0.40;70.39
50590;BME280;36547;50.514;30.840;2024-01-30T00:21:10;102599.19;;;-0.41;70.50
50590;BME280;36547;50.514;30.840;2024-01-30T00:22:13;102596.53;;;-0.42;70.64
50590;BME280;36547;50.514;30.840;2024-01-30T00:23:16;102603.45;;;-0.44;70.59
50590;BME280;36547;50.514;30.840;2024-01-30T00:24:18;102599.06;;;-0.45;70.50
50590;BME280;36547;50.514;30.840;2024-01-30T00:25:23;102590.41;;;-0.43;70.52
50590;BME280;36547;50.514;30.840;2024-01-30T00:26:26;102589.45;;;-0.46;70.45
50590;BME280;36547;50.514;30.840;2024-01-30T00:27:28;102589.45;;;-0.46;70.49
50590;BME280;36547;50.514;30.840;2024-01-30T00:28:30;102592.02;;;-0.48;70.57
50590;BME280;36547;50.514;30.840;2024-01-30T00:29:33;102588.52;;;-0.48;70.54
50590;BME280;36547;50.514;30.840;2024-01-30T00:30:35;102588.56;;;-0.47;70.53
50590;BME280;36547;50.514;30.840;2024-01-30T00:31:38;102582.34;;;-0.50;70.53
50590;BME280;36547;50.514;30.840;2024-01-30T00:32:42;102584.12;;;-0.49;70.54
50590;BME280;36547;50.514;30.840;2024-01-30T00:33:44;102581.41;;;-0.52;70.54
50590;BME280;36547;50.514;30.840;2024-01-30T00:34:46;102585.06;;;-0.47;70.57
50590;BME280;36547;50.514;30.840;2024-01-30T00:35:49;102578.84;;;-0.51;70.56
50590;BME280;36547;50.514;30.840;2024-01-30T00:36:51;102577.12;;;-0.50;70.53
50590;BME280;36547;50.514;30.840;2024-01-30T00:37:53;102567.67;;;-0.47;70.62
50590;BME280;36547;50.514;30.840;2024-01-30T00:38:57;102571.12;;;-0.48;70.69
50590;BME280;36547;50.514;30.840;2024-01-30T00:39:59;102569.34;;;-0.49;70.38
50590;BME280;36547;50.514;30.840;2024-01-30T00:41:02;102564.07;;;-0.50;70.40
50590;BME280;36547;50.514;30.840;2024-01-30T00:42:05;102566.78;;;-0.47;70.42
50590;BME280;36547;50.514;30.840;2024-01-30T00:43:07;102568.45;;;-0.49;70.41
50590;BME280;36547;50.514;30.840;2024-01-30T00:44:09;102565.02;;;-0.48;70.36
50590;BME280;36547;50.514;30.840;2024-01-30T00:45:16;102559.84;;;-0.47;70.33
50590;BME280;36547;50.514;30.840;2024-01-30T00:46:19;102560.57;;;-0.51;70.33
50590;BME280;36547;50.514;30.840;2024-01-30T00:47:21;102556.13;;;-0.53;70.44
50590;BME280;36547;50.514;30.840;2024-01-30T00:48:23;102552.53;;;-0.57;70.50
50590;BME280;36547;50.514;30.840;2024-01-30T00:49:26;102549.91;;;-0.57;70.52
50590;BME280;36547;50.514;30.840;2024-01-30T00:50:28;102556.02;;;-0.56;70.53
50590;BME280;36547;50.514;30.840;2024-01-30T00:51:31;102555.95;;;-0.59;70.60
50590;BME280;36547;50.514;30.840;2024-01-30T00:52:33;102548.06;;;-0.61;70.57
50590;BME280;36547;50.514;30.840;2024-01-30T00:53:36;102548.95;;;-0.60;70.67
50590;BME280;36547;50.514;30.840;2024-01-30T00:54:39;102547.08;;;-0.64;70.79
50590;BME280;36547;50.514;30.840;2024-01-30T00:55:41;102549.58;;;-0.67;70.89
50590;BME280;36547;50.514;30.840;2024-01-30T00:56:44;102555.63;;;-0.68;71.01
50590;BME280;36547;50.514;30.840;2024-01-30T00:57:46;102550.41;;;-0.68;71.19
50590;BME280;36547;50.514;30.840;2024-01-30T00:58:48;102551.25;;;-0.69;71.19
50590;BME280;36547;50.514;30.840;2024-01-30T00:59:51;102546.02;;;-0.69;71.16
50590;BME280;36547;50.514;30.840;2024-01-30T01:00:53;102543.23;;;-0.76;71.31
50590;BME280;36547;50.514;30.840;2024-01-30T01:01:56;102537.91;;;-0.79;71.49
50590;BME280;36547;50.514;30.840;2024-01-30T01:02:59;102532.58;;;-0.82;71.56
50590;BME280;36547;50.514;30.840;2024-01-30T01:04:01;102533.68;;;-0.75;71.75
50590;BME280;36547;50.514;30.840;2024-01-30T01:05:04;102534.45;;;-0.78;71.68
50590;BME280;36547;50.514;30.840;2024-01-30T01:06:08;102526.62;;;-0.78;71.74
50590;BME280;36547;50.514;30.840;2024-01-30T01:07:10;102530.08;;;-0.79;71.81
50590;BME280;36547;50.514;30.840;2024-01-30T01:08:13;102527.57;;;-0.76;71.75
50590;BME280;36547;50.514;30.840;2024-01-30T01:09:15;102531.84;;;-0.78;71.82
50590;BME280;36547;50.514;30.840;2024-01-30T01:10:18;102527.47;;;-0.79;71.79
50590;BME280;36547;50.514;30.840;2024-01-30T01:11:20;102527.57;;;-0.76;71.91
50590;BME280;36547;50.514;30.840;2024-01-30T01:12:23;102531.06;;;-0.75;72.15
50590;BME280;36547;50.514;30.840;2024-01-30T01:13:26;102521.57;;;-0.73;71.97
50590;BME280;36547;50.514;30.840;2024-01-30T01:14:28;102522.53;;;-0.69;71.90
50590;BME280;36547;50.514;30.840;2024-01-30T01:15:30;102518.14;;;-0.71;71.72
50590;BME280;36547;50.514;30.840;2024-01-30T01:16:33;102513.76;;;-0.72;71.68
50590;BME280;36547;50.514;30.840;2024-01-30T01:17:37;102505.80;;;-0.76;71.65
50590;BME280;36547;50.514;30.840;2024-01-30T01:18:40;102511.02;;;-0.76;71.73
50590;BME280;36547;50.514;30.840;2024-01-30T01:19:43;102507.42;;;-0.80;71.77
50590;BME280;36547;50.514;30.840;2024-01-30T01:20:47;102511.70;;;-0.82;71.86
50590;BME280;36547;50.514;30.840;2024-01-30T01:21:50;102501.26;;;-0.82;71.99
50590;BME280;36547;50.514;30.840;2024-01-30T01:22:52;102509.03;;;-0.83;72.03
50590;BME280;36547;50.514;30.840;2024-01-30T01:23:55;102500.37;;;-0.82;72.09
50590;BME280;36547;50.514;30.840;2024-01-30T01:24:57;102500.42;;;-0.81;72.09
50590;BME280;36547;50.514;30.840;2024-01-30T01:25:59;102501.20;;;-0.83;72.03
50590;BME280;36547;50.514;30.840;2024-01-30T01:27:04;102500.31;;;-0.84;72.02
50590;BME280;36547;50.514;30.840;2024-01-30T01:28:07;102504.70;;;-0.83;72.12
50590;BME280;36547;50.514;30.840;2024-01-30T01:29:09;102504.70;;;-0.83;72.28
50590;BME280;36547;50.514;30.840;2024-01-30T01:30:13;102501.26;;;-0.82;72.26
50590;BME280;36547;50.514;30.840;2024-01-30T01:31:16;102502.09;;;-0.83;72.20
50590;BME280;36547;50.514;30.840;2024-01-30T01:32:18;102499.59;;;-0.80;72.28
50590;BME280;36547;50.514;30.840;2024-01-30T01:33:21;102501.26;;;-0.82;72.23
50590;BME280;36547;50.514;30.840;2024-01-30T01:34:24;102499.59;;;-0.80;72.21
50590;BME280;36547;50.514;30.840;2024-01-30T01:35:26;102493.53;;;-0.79;72.26
50590;BME280;36547;50.514;30.840;2024-01-30T01:36:29;102494.37;;;-0.80;72.17
50590;BME280;36547;50.514;30.840;2024-01-30T01:37:32;102497.14;;;-0.75;72.29
50590;BME280;36547;50.514;30.840;2024-01-30T01:38:35;102496.36;;;-0.73;72.07
50590;BME280;36547;50.514;30.840;2024-01-30T01:39:37;102493.81;;;-0.69;72.06
50590;BME280;36547;50.514;30.840;2024-01-30T01:40:40;102495.54;;;-0.70;72.01
50590;BME280;36547;50.514;30.840;2024-01-30T01:41:42;102483.48;;;-0.66;71.86
50590;BME280;36547;50.514;30.840;2024-01-30T01:42:45;102481.81;;;-0.64;71.75
50590;BME280;36547;50.514;30.840;2024-01-30T01:43:48;102487.03;;;-0.64;71.66
50590;BME280;36547;50.514;30.840;2024-01-30T01:44:50;102474.13;;;-0.60;71.62
50590;BME280;36547;50.514;30.840;2024-01-30T01:45:52;102472.45;;;-0.58;71.53
50590;BME280;36547;50.514;30.840;2024-01-30T01:46:55;102465.58;;;-0.54;71.39
50590;BME280;36547;50.514;30.840;2024-01-30T01:47:59;102462.13;;;-0.53;71.20
50590;BME280;36547;50.514;30.840;2024-01-30T01:49:02;102463.02;;;-0.53;71.12
50590;BME280;36547;50.514;30.840;2024-01-30T01:50:07;102462.03;;;-0.56;71.12
50590;BME280;36547;50.514;30.840;2024-01-30T01:51:11;102457.64;;;-0.57;71.09
50590;BME280;36547;50.514;30.840;2024-01-30T01:52:13;102446.25;;;-0.61;71.09
50590;BME280;36547;50.514;30.840;2024-01-30T01:53:16;102452.41;;;-0.59;71.06
50590;BME280;36547;50.514;30.840;2024-01-30T01:54:19;102454.03;;;-0.62;71.03
50590;BME280;36547;50.514;30.840;2024-01-30T01:55:24;102446.05;;;-0.67;71.14
50590;BME280;36547;50.514;30.840;2024-01-30T01:56:28;102448.61;;;-0.68;71.18
50590;BME280;36547;50.514;30.840;2024-01-30T01:57:33;102448.50;;;-0.72;71.26
50590;BME280;36547;50.514;30.840;2024-01-30T01:58:35;102444.00;;;-0.77;71.34
50590;BME280;36547;50.514;30.840;2024-01-30T01:59:39;102444.73;;;-0.81;71.38
50590;BME280;36547;50.514;30.840;2024-01-30T02:00:42;102440.34;;;-0.82;71.63
50590;BME280;36547;50.514;30.840;2024-01-30T02:01:44;102436.84;;;-0.83;71.67
50590;BME280;36547;50.514;30.840;2024-01-30T02:02:47;102445.67;;;-0.79;71.71
50590;BME280;36547;50.514;30.840;2024-01-30T02:03:52;102447.18;;;-0.86;71.81
50590;BME280;36547;50.514;30.840;2024-01-30T02:04:55;102457.73;;;-0.83;71.93
50590;BME280;36547;50.514;30.840;2024-01-30T02:05:58;102451.56;;;-0.85;72.04
50590;BME280;36547;50.514;30.840;2024-01-30T02:07:00;102459.50;;;-0.82;72.01
50590;BME280;36547;50.514;30.840;2024-01-30T02:08:03;102457.73;;;-0.83;72.04
50590;BME280;36547;50.514;30.840;2024-01-30T02:09:06;102455.95;;;-0.84;72.14
50590;BME280;36547;50.514;30.840;2024-01-30T02:10:09;102455.95;;;-0.84;72.20
50590;BME280;36547;50.514;30.840;2024-01-30T02:11:12;102458.67;;;-0.81;72.18
50590;BME280;36547;50.514;30.840;2024-01-30T02:12:14;102452.61;;;-0.80;71.97
50590;BME280;36547;50.514;30.840;2024-01-30T02:13:16;102463.05;;;-0.80;71.98
50590;BME280;36547;50.514;30.840;2024-01-30T02:14:19;102456.16;;;-0.78;71.97
50590;BME280;36547;50.514;30.840;2024-01-30T02:15:22;102456.27;;;-0.75;71.88
50590;BME280;36547;50.514;30.840;2024-01-30T02:16:26;102459.83;;;-0.71;71.79
50590;BME280;36547;50.514;30.840;2024-01-30T02:17:29;102455.43;;;-0.74;71.63
50590;BME280;36547;50.514;30.840;2024-01-30T02:18:32;102451.98;;;-0.73;71.68
50590;BME280;36547;50.514;30.840;2024-01-30T02:19:34;102458.05;;;-0.72;71.63
50590;BME280;36547;50.514;30.840;2024-01-30T02:20:37;102457.20;;;-0.73;71.60
50590;BME280;36547;50.514;30.840;2024-01-30T02:21:41;102462.38;;;-0.74;71.62
50590;BME280;36547;50.514;30.840;2024-01-30T02:22:43;102466.70;;;-0.75;71.69
50590;BME280;36547;50.514;30.840;2024-01-30T02:23:47;102464.98;;;-0.74;71.60
50590;BME280;36547;50.514;30.840;2024-01-30T02:24:50;102461.55;;;-0.72;71.60
50590;BME280;36547;50.514;30.840;2024-01-30T02:25:53;102456.27;;;-0.75;71.61
50590;BME280;36547;50.514;30.840;2024-01-30T02:26:56;102458.04;;;-0.74;71.60
50590;BME280;36547;50.514;30.840;2024-01-30T02:27:58;102463.26;;;-0.74;71.55
50590;BME280;36547;50.514;30.840;2024-01-30T02:29:01;102461.48;;;-0.75;71.55
50590;BME280;36547;50.514;30.840;2024-01-30T02:30:05;102458.82;;;-0.76;71.48
50590;BME280;36547;50.514;30.840;2024-01-30T02:31:07;102459.50;;;-0.82;71.51
50590;BME280;36547;50.514;30.840;2024-01-30T02:32:09;102463.73;;;-0.85;71.62
50590;BME280;36547;50.514;30.840;2024-01-30T02:33:12;102457.55;;;-0.89;71.68
50590;BME280;36547;50.514;30.840;2024-01-30T02:34:15;102454.89;;;-0.90;71.73
50590;BME280;36547;50.514;30.840;2024-01-30T02:35:17;102447.89;;;-0.91;71.84
50590;BME280;36547;50.514;30.840;2024-01-30T02:36:21;102459.22;;;-0.91;71.87
50590;BME280;36547;50.514;30.840;2024-01-30T02:37:24;102460.94;;;-0.91;71.88
50590;BME280;36547;50.514;30.840;2024-01-30T02:38:27;102460.99;;;-0.90;71.90
50590;BME280;36547;50.514;30.840;2024-01-30T02:39:29;102455.78;;;-0.90;71.85
50590;BME280;36547;50.514;30.840;2024-01-30T02:40:32;102467.16;;;-0.88;71.83
50590;BME280;36547;50.514;30.840;2024-01-30T02:41:34;102460.99;;;-0.90;71.73
50590;BME280;36547;50.514;30.840;2024-01-30T02:42:36;102458.44;;;-0.88;71.72
50590;BME280;36547;50.514;30.840;2024-01-30T02:43:39;102473.20;;;-0.89;71.73
50590;BME280;36547;50.514;30.840;2024-01-30T02:44:41;102461.05;;;-0.88;71.77
50590;BME280;36547;50.514;30.840;2024-01-30T02:45:43;102461.95;;;-0.86;71.69
50590;BME280;36547;50.514;30.840;2024-01-30T02:46:45;102456.84;;;-0.83;71.57
50590;BME280;36547;50.514;30.840;2024-01-30T02:47:48;102457.83;;;-0.80;71.51
50590;BME280;36547;50.514;30.840;2024-01-30T02:48:50;102463.88;;;-0.81;71.40
50590;BME280;36547;50.514;30.840;2024-01-30T02:49:52;102452.51;;;-0.83;71.17
50590;BME280;36547;50.514;30.840;2024-01-30T02:50:57;102455.17;;;-0.81;71.22
50590;BME280;36547;50.514;30.840;2024-01-30T02:53:14;102460.55;;;-0.77;71.25
50590;BME280;36547;50.514;30.840;2024-01-30T02:54:17;102457.45;;;-0.92;71.27
50590;BME280;36547;50.514;30.840;2024-01-30T02:55:21;102460.99;;;-0.90;71.35
50590;BME280;36547;50.514;30.840;2024-01-30T02:56:25;102467.94;;;-0.90;71.38
50590;BME280;36547;50.514;30.840;2024-01-30T02:57:29;102459.22;;;-0.91;71.34
50590;BME280;36547;50.514;30.840;2024-01-30T02:58:31;102460.89;;;-0.93;71.31
50590;BME280;36547;50.514;30.840;2024-01-30T02:59:33;102454.73;;;-0.95;71.38
50590;BME280;36547;50.514;30.840;2024-01-30T03:00:36;102459.17;;;-0.92;71.40
50590;BME280;36547;50.514;30.840;2024-01-30T03:01:45;102457.34;;;-0.95;71.43
50590;BME280;36547;50.514;30.840;2024-01-30T03:02:48;102462.55;;;-0.95;71.47
50590;BME280;36547;50.514;30.840;2024-01-30T03:03:50;102460.78;;;-0.96;71.43
50590;BME280;36547;50.514;30.840;2024-01-30T03:04:53;102461.67;;;-0.95;71.47
50590;BME280;36547;50.514;30.840;2024-01-30T03:05:55;102469.55;;;-0.94;71.50
50590;BME280;36547;50.514;30.840;2024-01-30T03:06:58;102466.00;;;-0.96;71.43
50590;BME280;36547;50.514;30.840;2024-01-30T03:08:00;102460.00;;;-0.93;71.36
50590;BME280;36547;50.514;30.840;2024-01-30T03:09:03;102464.44;;;-0.91;71.18
50590;BME280;36547;50.514;30.840;2024-01-30T03:10:06;102462.66;;;-0.92;70.87
50590;BME280;36547;50.514;30.840;2024-01-30T03:11:09;102455.67;;;-0.93;70.62
50590;BME280;36547;50.514;30.840;2024-01-30T03:12:11;102460.11;;;-0.90;70.62
50590;BME280;36547;50.514;30.840;2024-01-30T03:13:13;102459.22;;;-0.91;70.46
50590;BME280;36547;50.514;30.840;2024-01-30T03:14:16;102455.67;;;-0.93;70.56
50590;BME280;36547;50.514;30.840;2024-01-30T03:15:18;102457.34;;;-0.95;70.46
50590;BME280;36547;50.514;30.840;2024-01-30T03:16:22;102459.89;;;-0.96;70.28
50590;BME280;36547;50.514;30.840;2024-01-30T03:17:24;102456.40;;;-0.97;70.21
50590;BME280;36547;50.514;30.840;2024-01-30T03:18:27;102463.39;;;-0.96;70.40
50590;BME280;36547;50.514;30.840;2024-01-30T03:19:30;102464.23;;;-0.97;70.48
50590;BME280;36547;50.514;30.840;2024-01-30T03:20:33;102459.11;;;-0.94;70.39
50590;BME280;36547;50.514;30.840;2024-01-30T03:21:35;102467.77;;;-0.95;70.42
50590;BME280;36547;50.514;30.840;2024-01-30T03:22:37;102467.77;;;-0.95;70.60
50590;BME280;36547;50.514;30.840;2024-01-30T03:23:39;102465.11;;;-0.96;70.82
50590;BME280;36547;50.514;30.840;2024-01-30T03:24:41;102468.55;;;-0.97;70.85
50590;BME280;36547;50.514;30.840;2024-01-30T03:25:43;102467.67;;;-0.98;70.33
50590;BME280;36547;50.514;30.840;2024-01-30T03:26:47;102463.28;;;-0.99;70.11
50590;BME280;36547;50.514;30.840;2024-01-30T03:27:49;102452.91;;;-0.97;70.12
50590;BME280;36547;50.514;30.840;2024-01-30T03:28:52;102462.45;;;-0.98;69.99
50590;BME280;36547;50.514;30.840;2024-01-30T03:29:54;102458.06;;;-0.99;69.89
50590;BME280;36547;50.514;30.840;2024-01-30T03:30:57;102464.05;;;-1.03;70.09
50590;BME280;36547;50.514;30.840;2024-01-30T03:31:59;102456.89;;;-1.09;70.53
50590;BME280;36547;50.514;30.840;2024-01-30T03:33:02;102453.40;;;-1.09;70.82
50590;BME280;36547;50.514;30.840;2024-01-30T03:34:04;102446.41;;;-1.10;70.95
50590;BME280;36547;50.514;30.840;2024-01-30T03:35:07;102444.52;;;-1.14;71.14
50590;BME280;36547;50.514;30.840;2024-01-30T03:36:11;102442.75;;;-1.15;71.33
50590;BME280;36547;50.514;30.840;2024-01-30T03:37:13;102444.50;;;-1.16;71.46
50590;BME280;36547;50.514;30.840;2024-01-30T03:38:15;102450.44;;;-1.20;71.44
50590;BME280;36547;50.514;30.840;2024-01-30T03:39:18;102438.19;;;-1.22;71.46
50590;BME280;36547;50.514;30.840;2024-01-30T03:40:22;102440.69;;;-1.25;71.40
50590;BME280;36547;50.514;30.840;2024-01-30T03:41:25;102431.91;;;-1.27;71.36
50590;BME280;36547;50.514;30.840;2024-01-30T03:42:27;102433.58;;;-1.29;71.35
50590;BME280;36547;50.514;30.840;2024-01-30T03:43:29;102431.84;;;-1.30;71.25
50590;BME280;36547;50.514;30.840;2024-01-30T03:44:32;102429.95;;;-1.34;71.25
50590;BME280;36547;50.514;30.840;2024-01-30T03:45:34;102426.52;;;-1.33;71.32
50590;BME280;36547;50.514;30.840;2024-01-30T03:46:37;102431.73;;;-1.33;71.47
50590;BME280;36547;50.514;30.840;2024-01-30T03:47:43;102435.17;;;-1.34;71.54
50590;BME280;36547;50.514;30.840;2024-01-30T03:48:46;102428.18;;;-1.35;71.50
50590;BME280;36547;50.514;30.840;2024-01-30T03:49:48;102428.91;;;-1.39;71.43
50590;BME280;36547;50.514;30.840;2024-01-30T03:50:50;102429.73;;;-1.40;71.42
50590;BME280;36547;50.514;30.840;2024-01-30T03:51:52;102427.91;;;-1.43;71.39
50590;BME280;36547;50.514;30.840;2024-01-30T03:52:55;102431.33;;;-1.46;71.14
50590;BME280;36547;50.514;30.840;2024-01-30T03:53:58;102428.66;;;-1.47;71.04
50590;BME280;36547;50.514;30.840;2024-01-30T03:55:01;102425.94;;;-1.50;71.11
50590;BME280;36547;50.514;30.840;2024-01-30T03:56:03;102425.00;;;-1.52;71.22
50590;BME280;36547;50.514;30.840;2024-01-30T03:57:06;102427.66;;;-1.51;71.53
50590;BME280;36547;50.514;30.840;2024-01-30T03:58:08;102428.50;;;-1.52;71.75
50590;BME280;36547;50.514;30.840;2024-01-30T03:59:11;102424.11;;;-1.53;71.71
50590;BME280;36547;50.514;30.840;2024-01-30T04:00:14;102417.95;;;-1.55;71.55
50590;BME280;36547;50.514;30.840;2024-01-30T04:01:18;102417.90;;;-1.56;71.55
50590;BME280;36547;50.514;30.840;2024-01-30T04:02:20;102419.56;;;-1.58;71.97
50590;BME280;36547;50.514;30.840;2024-01-30T04:03:23;102422.15;;;-1.60;72.27
50590;BME280;36547;50.514;30.840;2024-01-30T04:04:25;102424.78;;;-1.58;72.45
50590;BME280;36547;50.514;30.840;2024-01-30T04:05:27;102421.20;;;-1.62;72.56
50590;BME280;36547;50.514;30.840;2024-01-30T04:06:30;102424.78;;;-1.58;72.65
50590;BME280;36547;50.514;30.840;2024-01-30T04:07:33;102418.71;;;-1.59;72.77
50590;BME280;36547;50.514;30.840;2024-01-30T04:08:35;102427.36;;;-1.60;72.82
50590;BME280;36547;50.514;30.840;2024-01-30T04:09:38;102422.15;;;-1.60;72.90
50590;BME280;36547;50.514;30.840;2024-01-30T04:10:41;102425.48;;;-1.64;72.99
50590;BME280;36547;50.514;30.840;2024-01-30T04:11:43;102422.87;;;-1.64;73.02
50590;BME280;36547;50.514;30.840;2024-01-30T04:12:45;102432.34;;;-1.66;72.93
50590;BME280;36547;50.514;30.840;2024-01-30T04:13:48;102427.25;;;-1.63;72.93
50590;BME280;36547;50.514;30.840;2024-01-30T04:14:50;102421.15;;;-1.63;72.96
50590;BME280;36547;50.514;30.840;2024-01-30T04:15:53;102430.58;;;-1.67;72.83
50590;BME280;36547;50.514;30.840;2024-01-30T04:16:55;102428.91;;;-1.65;73.01
50590;BME280;36547;50.514;30.840;2024-01-30T04:17:58;102430.58;;;-1.67;73.07
50590;BME280;36547;50.514;30.840;2024-01-30T04:19:00;102431.46;;;-1.66;73.14
50590;BME280;36547;50.514;30.840;2024-01-30T04:20:04;102428.02;;;-1.65;73.19
50590;BME280;36547;50.514;30.840;2024-01-30T04:21:07;102426.25;;;-1.66;73.26
50590;BME280;36547;50.514;30.840;2024-01-30T04:22:09;102425.36;;;-1.67;73.31
50590;BME280;36547;50.514;30.840;2024-01-30T04:23:14;102427.97;;;-1.67;73.35
50590;BME280;36547;50.514;30.840;2024-01-30T04:24:19;102427.19;;;-1.64;73.37
50590;BME280;36547;50.514;30.840;2024-01-30T04:25:25;102427.14;;;-1.66;73.39
50590;BME280;36547;50.514;30.840;2024-01-30T04:26:29;102428.08;;;-1.64;73.24
50590;BME280;36547;50.514;30.840;2024-01-30T04:27:34;102425.48;;;-1.64;73.11
50590;BME280;36547;50.514;30.840;2024-01-30T04:28:37;102421.92;;;-1.66;73.03
50590;BME280;36547;50.514;30.840;2024-01-30T04:29:43;102423.81;;;-1.62;73.00
50590;BME280;36547;50.514;30.840;2024-01-30T04:30:48;102425.53;;;-1.62;72.92
50590;BME280;36547;50.514;30.840;2024-01-30T04:31:51;102423.75;;;-1.63;72.84
50590;BME280;36547;50.514;30.840;2024-01-30T04:32:57;102421.09;;;-1.65;72.85
50590;BME280;36547;50.514;30.840;2024-01-30T04:34:02;102416.83;;;-1.63;72.83
50590;BME280;36547;50.514;30.840;2024-01-30T04:35:07;102422.03;;;-1.63;72.80
50590;BME280;36547;50.514;30.840;2024-01-30T04:36:16;102413.27;;;-1.65;72.76
50590;BME280;36547;50.514;30.840;2024-01-30T04:37:20;102420.15;;;-1.67;72.64
50590;BME280;36547;50.514;30.840;2024-01-30T04:38:27;102420.15;;;-1.67;72.66
50590;BME280;36547;50.514;30.840;2024-01-30T04:39:33;102414.94;;;-1.67;72.59
50590;BME280;36547;50.514;30.840;2024-01-30T04:40:43;102406.70;;;-1.54;72.67
50590;BME280;36547;50.514;30.840;2024-01-30T04:41:45;102412.10;;;-1.73;72.85
50590;BME280;36547;50.514;30.840;2024-01-30T04:42:48;102416.48;;;-1.72;72.74
50590;BME280;36547;50.514;30.840;2024-01-30T04:43:50;102408.78;;;-1.69;72.65
50590;BME280;36547;50.514;30.840;2024-01-30T04:44:54;102416.59;;;-1.69;72.61
50590;BME280;36547;50.514;30.840;2024-01-30T04:45:56;102413.99;;;-1.69;72.60
50590;BME280;36547;50.514;30.840;2024-01-30T04:46:58;102409.61;;;-1.70;72.61
50590;BME280;36547;50.514;30.840;2024-01-30T04:48:00;102406.17;;;-1.69;72.51
50590;BME280;36547;50.514;30.840;2024-01-30T04:49:03;102413.27;;;-1.65;72.52
50590;BME280;36547;50.514;30.840;2024-01-30T04:50:07;102412.33;;;-1.67;72.47
50590;BME280;36547;50.514;30.840;2024-01-30T04:51:09;102413.16;;;-1.68;72.36
50590;BME280;36547;50.514;30.840;2024-01-30T04:52:12;102407.84;;;-1.71;72.40
50590;BME280;36547;50.514;30.840;2024-01-30T04:53:14;102404.28;;;-1.73;72.34
50590;BME280;36547;50.514;30.840;2024-01-30T04:54:19;102404.20;;;-1.76;72.43
50590;BME280;36547;50.514;30.840;2024-01-30T04:55:23;102413.05;;;-1.71;72.43
50590;BME280;36547;50.514;30.840;2024-01-30T04:56:26;102400.13;;;-1.68;72.50
50590;BME280;36547;50.514;30.840;2024-01-30T04:57:29;102399.24;;;-1.68;72.53
50590;BME280;36547;50.514;30.840;2024-01-30T04:58:31;102401.73;;;-1.71;72.44
50590;BME280;36547;50.514;30.840;2024-01-30T04:59:34;102403.52;;;-1.70;72.40
50590;BME280;36547;50.514;30.840;2024-01-30T05:00:36;102407.84;;;-1.71;72.29
50590;BME280;36547;50.514;30.840;2024-01-30T05:01:39;102408.67;;;-1.72;72.27
50590;BME280;36547;50.514;30.840;2024-01-30T05:02:41;102404.28;;;-1.73;72.27
50590;BME280;36547;50.514;30.840;2024-01-30T05:03:44;102400.77;;;-1.75;72.30
50590;BME280;36547;50.514;30.840;2024-01-30T05:04:46;102395.56;;;-1.75;72.28
50590;BME280;36547;50.514;30.840;2024-01-30T05:05:49;102401.60;;;-1.76;72.14
50590;BME280;36547;50.514;30.840;2024-01-30T05:06:51;102401.48;;;-1.79;71.98
50590;BME280;36547;50.514;30.840;2024-01-30T05:07:54;102396.16;;;-1.82;71.93
50590;BME280;36547;50.514;30.840;2024-01-30T05:08:56;102401.38;;;-1.82;72.11
50590;BME280;36547;50.514;30.840;2024-01-30T05:09:59;102396.94;;;-1.85;72.24
50590;BME280;36547;50.514;30.840;2024-01-30T05:11:04;102394.39;;;-1.83;72.33
50590;BME280;36547;50.514;30.840;2024-01-30T05:12:07;102390.84;;;-1.85;72.39
50590;BME280;36547;50.514;30.840;2024-01-30T05:13:09;102390.84;;;-1.85;72.61
50590;BME280;36547;50.514;30.840;2024-01-30T05:14:11;102392.67;;;-1.83;72.64
50590;BME280;36547;50.514;30.840;2024-01-30T05:15:14;102395.99;;;-1.87;72.57
50590;BME280;36547;50.514;30.840;2024-01-30T05:16:18;102401.27;;;-1.85;72.52
50590;BME280;36547;50.514;30.840;2024-01-30T05:17:21;102400.31;;;-1.87;72.59
50590;BME280;36547;50.514;30.840;2024-01-30T05:18:24;102399.55;;;-1.85;72.57
50590;BME280;36547;50.514;30.840;2024-01-30T05:19:26;102393.45;;;-1.85;72.53
50590;BME280;36547;50.514;30.840;2024-01-30T05:20:29;102398.77;;;-1.82;72.55
50590;BME280;36547;50.514;30.840;2024-01-30T05:21:31;102400.43;;;-1.84;72.53
50590;BME280;36547;50.514;30.840;2024-01-30T05:22:33;102400.43;;;-1.84;72.51
50590;BME280;36547;50.514;30.840;2024-01-30T05:23:35;102399.66;;;-1.82;72.65
50590;BME280;36547;50.514;30.840;2024-01-30T05:24:38;102406.59;;;-1.82;72.67
50590;BME280;36547;50.514;30.840;2024-01-30T05:25:40;102406.70;;;-1.79;72.71